createdAt,value
2018-09-25T00:00:22.014Z,6.80
2018-09-25T00:01:21.913Z,6.30
2018-09-25T00:02:21.816Z,9.30
2018-09-25T00:03:21.715Z,9.20
2018-09-25T00:04:21.632Z,7.10
2018-09-25T00:05:21.519Z,5.90
2018-09-25T00:06:21.418Z,4.90
2018-09-25T00:07:21.320Z,7.50
2018-09-25T00:08:21.217Z,5.70
2018-09-25T00:09:21.135Z,5.90
2018-09-25T00:10:21.074Z,6.80
2018-09-25T00:11:20.924Z,5.60
2018-09-25T00:12:20.826Z,6.10
2018-09-25T00:13:20.724Z,6.80
2018-09-25T00:14:20.641Z,5.70
2018-09-25T00:15:20.525Z,6.00
2018-09-25T00:16:20.424Z,4.90
2018-09-25T00:17:20.324Z,5.70
2018-09-25T00:18:20.228Z,4.30
2018-09-25T00:19:20.147Z,7.70
2018-09-25T00:20:20.032Z,6.50
2018-09-25T00:21:19.930Z,7.90
2018-09-25T00:22:19.833Z,7.70
2018-09-25T00:23:19.738Z,6.00
2018-09-25T00:24:19.640Z,6.20
2018-09-25T00:25:19.551Z,8.00
2018-09-25T00:26:19.435Z,6.90
2018-09-25T00:27:19.337Z,5.20
2018-09-25T00:28:19.237Z,5.50
2018-09-25T00:29:19.140Z,5.60
2018-09-25T00:30:19.061Z,5.20
2018-09-25T00:31:18.948Z,12.10
2018-09-25T00:32:18.842Z,4.60
2018-09-25T00:33:18.742Z,7.20
2018-09-25T00:34:18.649Z,5.10
2018-09-25T00:35:18.566Z,6.50
2018-09-25T00:36:18.448Z,5.60
2018-09-25T00:37:18.348Z,5.30
2018-09-25T00:38:18.251Z,4.90
2018-09-25T00:39:18.155Z,7.60
2018-09-25T00:40:18.067Z,6.50
2018-09-25T00:41:17.952Z,5.80
2018-09-25T00:42:17.854Z,8.40
2018-09-25T00:43:17.757Z,4.20
2018-09-25T00:44:17.657Z,6.20
2018-09-25T00:45:17.573Z,5.50
2018-09-25T00:46:17.460Z,5.90
2018-09-25T00:47:17.358Z,6.70
2018-09-25T00:48:17.262Z,6.80
2018-09-25T00:49:17.161Z,7.30
2018-09-25T00:50:17.079Z,5.50
2018-09-25T00:51:16.962Z,6.00
2018-09-25T00:52:16.863Z,7.50
2018-09-25T00:53:16.766Z,7.50
2018-09-25T00:54:16.668Z,6.20
2018-09-25T00:55:16.583Z,8.00
2018-09-25T00:56:16.464Z,7.30
2018-09-25T00:57:16.370Z,6.90
2018-09-25T00:58:16.267Z,4.70
2018-09-25T00:59:16.169Z,5.80
2018-09-25T01:00:16.086Z,7.90
2018-09-25T01:01:15.975Z,6.00
2018-09-25T01:02:15.871Z,5.80
2018-09-25T01:03:15.889Z,7.10
2018-09-25T01:04:15.673Z,4.30
2018-09-25T01:05:15.595Z,6.10
2018-09-25T01:06:15.478Z,6.30
2018-09-25T01:07:15.379Z,6.10
2018-09-25T01:08:15.278Z,6.20
2018-09-25T01:09:15.181Z,5.60
2018-09-25T01:10:15.207Z,7.10
2018-09-25T01:11:14.986Z,5.90
2018-09-25T01:12:14.886Z,6.80
2018-09-25T01:13:14.790Z,6.70
2018-09-25T01:14:14.686Z,8.80
2018-09-25T01:15:14.602Z,6.20
2018-09-25T01:16:14.494Z,6.80
2018-09-25T01:17:14.489Z,6.80
2018-09-25T01:18:14.291Z,7.30
2018-09-25T01:19:14.252Z,5.50
2018-09-25T01:20:14.106Z,7.40
2018-09-25T01:21:13.990Z,6.50
2018-09-25T01:22:13.892Z,7.40
2018-09-25T01:23:13.794Z,6.40
2018-09-25T01:24:13.808Z,6.90
2018-09-25T01:25:13.614Z,7.80
2018-09-25T01:26:13.501Z,5.80
2018-09-25T01:27:13.401Z,7.20
2018-09-25T01:28:13.300Z,7.70
2018-09-25T01:29:13.201Z,5.20
2018-09-25T01:30:13.119Z,8.50
2018-09-25T01:31:13.131Z,6.60
2018-09-25T01:32:12.903Z,7.70
2018-09-25T01:33:12.808Z,6.40
2018-09-25T01:34:12.713Z,8.00
2018-09-25T01:35:12.627Z,6.80
2018-09-25T01:36:12.516Z,6.30
2018-09-25T01:37:12.413Z,8.00
2018-09-25T01:38:12.315Z,7.40
2018-09-25T01:39:12.216Z,7.50
2018-09-25T01:40:12.133Z,7.80
2018-09-25T01:41:12.016Z,6.60
2018-09-25T01:42:11.918Z,8.90
2018-09-25T01:43:11.821Z,9.70
2018-09-25T01:44:11.721Z,6.60
2018-09-25T01:45:11.642Z,8.20
2018-09-25T01:46:11.531Z,6.20
2018-09-25T01:47:11.425Z,10.90
2018-09-25T01:48:11.327Z,9.50
2018-09-25T01:49:11.229Z,6.40
2018-09-25T01:50:11.147Z,9.10
2018-09-25T01:51:11.030Z,7.20
2018-09-25T01:52:10.932Z,7.40
2018-09-25T01:53:10.831Z,7.50
2018-09-25T01:54:10.734Z,8.00
2018-09-25T01:55:10.656Z,7.00
2018-09-25T01:56:10.535Z,8.50
2018-09-25T01:57:10.437Z,7.90
2018-09-25T01:58:10.342Z,8.30
2018-09-25T01:59:10.242Z,7.10
2018-09-25T02:00:10.160Z,7.20
2018-09-25T02:01:10.048Z,9.70
2018-09-25T02:02:09.946Z,9.20
2018-09-25T02:03:09.850Z,8.20
2018-09-25T02:04:09.747Z,7.60
2018-09-25T02:05:09.669Z,8.40
2018-09-25T02:06:09.553Z,10.30
2018-09-25T02:07:09.452Z,9.60
2018-09-25T02:08:09.354Z,7.10
2018-09-25T02:09:09.261Z,9.70
2018-09-25T02:10:09.191Z,7.80
2018-09-25T02:11:09.060Z,8.30
2018-09-25T02:12:08.963Z,10.30
2018-09-25T02:13:08.859Z,8.20
2018-09-25T02:14:09.061Z,8.50
2018-09-25T02:15:08.665Z,8.30
2018-09-25T02:16:08.582Z,8.60
2018-09-25T02:17:08.465Z,9.80
2018-09-25T02:18:08.367Z,7.20
2018-09-25T02:19:08.271Z,9.20
2018-09-25T02:20:08.174Z,9.50
2018-09-25T02:21:08.191Z,9.80
2018-09-25T02:22:07.973Z,8.90
2018-09-25T02:23:07.882Z,7.90
2018-09-25T02:24:07.778Z,8.30
2018-09-25T02:25:07.681Z,10.00
2018-09-25T02:26:07.595Z,8.70
2018-09-25T02:27:07.482Z,9.30
2018-09-25T02:28:07.486Z,10.00
2018-09-25T02:29:07.281Z,10.20
2018-09-25T02:30:07.192Z,8.30
2018-09-25T02:31:07.103Z,6.80
2018-09-25T02:32:06.986Z,9.50
2018-09-25T02:33:06.887Z,9.80
2018-09-25T02:34:06.789Z,8.10
2018-09-25T02:35:06.691Z,8.60
2018-09-25T02:36:06.608Z,8.90
2018-09-25T02:37:06.492Z,9.00
2018-09-25T02:38:06.395Z,7.70
2018-09-25T02:39:06.299Z,9.00
2018-09-25T02:40:06.196Z,9.40
2018-09-25T02:41:06.115Z,9.20
2018-09-25T02:42:06.002Z,8.70
2018-09-25T02:43:05.902Z,10.70
2018-09-25T02:44:05.802Z,10.30
2018-09-25T02:45:05.701Z,10.10
2018-09-25T02:46:05.620Z,9.30
2018-09-25T02:47:05.505Z,18.50
2018-09-25T02:48:05.410Z,12.60
2018-09-25T02:49:05.305Z,9.80
2018-09-25T02:50:05.210Z,9.40
2018-09-25T02:51:05.128Z,11.40
2018-09-25T02:52:05.012Z,9.70
2018-09-25T02:53:04.918Z,9.40
2018-09-25T02:54:04.824Z,9.00
2018-09-25T02:55:04.715Z,8.60
2018-09-25T02:56:04.634Z,9.10
2018-09-25T02:57:04.520Z,8.90
2018-09-25T02:58:04.422Z,9.80
2018-09-25T02:59:04.322Z,9.50
2018-09-25T03:00:04.223Z,11.20
2018-09-25T03:01:04.142Z,9.30
2018-09-25T03:02:04.026Z,11.30
2018-09-25T03:03:03.928Z,9.30
2018-09-25T03:04:03.827Z,10.70
2018-09-25T03:05:03.731Z,9.30
2018-09-25T03:06:03.650Z,9.40
2018-09-25T03:07:03.533Z,10.90
2018-09-25T03:08:03.436Z,9.60
2018-09-25T03:09:03.336Z,9.40
2018-09-25T03:10:03.235Z,9.20
2018-09-25T03:11:03.156Z,9.90
2018-09-25T03:12:03.038Z,10.00
2018-09-25T03:13:02.941Z,10.10
2018-09-25T03:14:02.843Z,10.00
2018-09-25T03:15:02.742Z,10.20
2018-09-25T03:16:02.660Z,11.70
2018-09-25T03:17:02.548Z,10.70
2018-09-25T03:18:02.463Z,10.90
2018-09-25T03:19:02.349Z,12.00
2018-09-25T03:20:02.249Z,11.20
2018-09-25T03:21:02.199Z,9.40
2018-09-25T03:22:02.066Z,10.50
2018-09-25T03:23:01.958Z,10.10
2018-09-25T03:24:02.008Z,10.00
2018-09-25T03:25:01.758Z,10.00
2018-09-25T03:26:01.672Z,13.00
2018-09-25T03:27:01.560Z,11.00
2018-09-25T03:28:01.460Z,10.10
2018-09-25T03:29:01.360Z,11.70
2018-09-25T03:30:01.263Z,12.90
2018-09-25T03:31:01.181Z,10.70
2018-09-25T03:32:01.062Z,10.80
2018-09-25T03:33:00.968Z,12.90
2018-09-25T03:34:00.881Z,12.00
2018-09-25T03:35:00.770Z,11.80
2018-09-25T03:36:00.687Z,13.40
2018-09-25T03:37:00.573Z,8.70
2018-09-25T03:38:00.471Z,12.50
2018-09-25T03:39:00.373Z,14.00
2018-09-25T03:40:00.273Z,10.70
2018-09-25T03:41:00.196Z,12.20
2018-09-25T03:42:00.078Z,10.80
2018-09-25T03:42:59.977Z,11.10
2018-09-25T03:43:59.982Z,12.70
2018-09-25T03:44:59.782Z,14.60
2018-09-25T03:45:59.698Z,12.40
2018-09-25T03:46:59.581Z,12.80
2018-09-25T03:47:59.485Z,13.60
2018-09-25T03:48:59.384Z,12.00
2018-09-25T03:49:59.285Z,12.60
2018-09-25T03:50:59.206Z,10.70
2018-09-25T03:51:59.088Z,11.70
2018-09-25T03:52:58.988Z,11.50
2018-09-25T03:53:58.891Z,13.40
2018-09-25T03:54:58.791Z,12.30
2018-09-25T03:55:58.709Z,15.00
2018-09-25T03:56:58.595Z,13.30
2018-09-25T03:57:58.599Z,14.60
2018-09-25T03:58:58.398Z,13.00
2018-09-25T03:59:58.295Z,12.90
2018-09-25T04:00:58.200Z,11.70
2018-09-25T04:01:58.114Z,13.90
2018-09-25T04:02:57.999Z,13.70
2018-09-25T04:03:57.899Z,9.90
2018-09-25T04:04:57.915Z,13.60
2018-09-25T04:05:57.708Z,12.00
2018-09-25T04:06:57.622Z,15.80
2018-09-25T04:07:57.504Z,15.10
2018-09-25T04:08:57.403Z,13.70
2018-09-25T04:09:57.309Z,14.00
2018-09-25T04:10:57.216Z,12.00
2018-09-25T04:11:57.227Z,13.50
2018-09-25T04:12:57.008Z,12.10
2018-09-25T04:13:56.910Z,13.30
2018-09-25T04:14:56.813Z,10.00
2018-09-25T04:15:56.715Z,12.10
2018-09-25T04:16:56.635Z,10.10
2018-09-25T04:17:56.515Z,14.60
2018-09-25T04:18:56.523Z,10.80
2018-09-25T04:19:56.315Z,12.70
2018-09-25T04:20:56.219Z,14.90
2018-09-25T04:21:56.142Z,14.90
2018-09-25T04:22:56.025Z,14.90
2018-09-25T04:23:55.923Z,16.20
2018-09-25T04:24:55.824Z,11.90
2018-09-25T04:25:55.829Z,17.30
2018-09-25T04:26:55.643Z,13.40
2018-09-25T04:27:55.525Z,14.80
2018-09-25T04:28:55.428Z,13.40
2018-09-25T04:29:55.329Z,13.40
2018-09-25T04:30:55.228Z,13.20
2018-09-25T04:31:55.145Z,15.60
2018-09-25T04:32:55.134Z,12.40
2018-09-25T04:33:54.931Z,12.50
2018-09-25T04:34:54.836Z,13.30
2018-09-25T04:35:54.734Z,13.60
2018-09-25T04:36:54.655Z,13.90
2018-09-25T04:37:54.535Z,13.30
2018-09-25T04:38:54.439Z,12.30
2018-09-25T04:39:54.447Z,12.60
2018-09-25T04:40:54.243Z,16.70
2018-09-25T04:41:54.162Z,13.00
2018-09-25T04:42:54.045Z,14.20
2018-09-25T04:43:53.945Z,15.40
2018-09-25T04:44:53.845Z,17.00
2018-09-25T04:45:53.744Z,14.60
2018-09-25T04:46:53.773Z,14.50
2018-09-25T04:47:53.572Z,16.70
2018-09-25T04:48:53.448Z,13.30
2018-09-25T04:49:53.348Z,14.80
2018-09-25T04:50:53.250Z,16.90
2018-09-25T04:51:53.168Z,16.40
2018-09-25T04:52:53.053Z,14.10
2018-09-25T04:53:53.075Z,14.60
2018-09-25T04:54:52.855Z,17.40
2018-09-25T04:55:52.761Z,15.10
2018-09-25T04:56:52.705Z,14.80
2018-09-25T04:57:52.561Z,17.10
2018-09-25T04:58:52.454Z,16.70
2018-09-25T04:59:52.360Z,14.90
2018-09-25T05:00:52.364Z,17.20
2018-09-25T05:01:52.178Z,15.50
2018-09-25T05:02:52.065Z,17.20
2018-09-25T05:03:51.966Z,16.30
2018-09-25T05:04:51.865Z,16.40
2018-09-25T05:05:51.765Z,16.20
2018-09-25T05:06:51.686Z,22.20
2018-09-25T05:07:51.673Z,16.80
2018-09-25T05:08:51.473Z,19.60
2018-09-25T05:09:51.370Z,19.30
2018-09-25T05:10:51.272Z,17.10
2018-09-25T05:11:51.192Z,16.20
2018-09-25T05:12:51.078Z,18.60
2018-09-25T05:13:50.975Z,17.20
2018-09-25T05:14:50.875Z,22.50
2018-09-25T05:15:50.776Z,16.50
2018-09-25T05:16:50.695Z,17.00
2018-09-25T05:17:50.579Z,16.50
2018-09-25T05:18:50.482Z,13.80
2018-09-25T05:19:50.380Z,18.30
2018-09-25T05:20:50.283Z,18.90
2018-09-25T05:21:50.198Z,15.00
2018-09-25T05:22:50.086Z,15.40
2018-09-25T05:23:49.989Z,21.90
2018-09-25T05:24:49.918Z,18.80
2018-09-25T05:25:49.787Z,21.90
2018-09-25T05:26:49.703Z,18.70
2018-09-25T05:27:49.694Z,17.60
2018-09-25T05:28:49.491Z,15.80
2018-09-25T05:29:49.390Z,19.40
2018-09-25T05:30:49.293Z,17.90
2018-09-25T05:31:49.206Z,15.70
2018-09-25T05:32:49.093Z,17.20
2018-09-25T05:33:48.993Z,18.70
2018-09-25T05:34:48.896Z,14.10
2018-09-25T05:35:48.797Z,15.10
2018-09-25T05:36:48.720Z,15.60
2018-09-25T05:37:48.598Z,15.60
2018-09-25T05:38:48.498Z,14.70
2018-09-25T05:39:48.398Z,17.10
2018-09-25T05:40:48.310Z,13.80
2018-09-25T05:41:48.219Z,14.40
2018-09-25T05:42:48.110Z,14.70
2018-09-25T05:43:48.004Z,16.40
2018-09-25T05:44:47.905Z,14.50
2018-09-25T05:45:47.806Z,14.50
2018-09-25T05:46:47.710Z,12.60
2018-09-25T05:47:47.624Z,17.10
2018-09-25T05:48:47.598Z,14.80
2018-09-25T05:49:47.409Z,12.80
2018-09-25T05:50:47.312Z,12.00
2018-09-25T05:51:47.215Z,17.20
2018-09-25T05:52:47.130Z,15.00
2018-09-25T05:53:47.019Z,15.50
2018-09-25T05:54:46.913Z,14.60
2018-09-25T05:55:46.814Z,16.30
2018-09-25T05:56:46.721Z,14.70
2018-09-25T05:57:46.642Z,15.00
2018-09-25T05:58:46.533Z,19.90
2018-09-25T05:59:46.420Z,13.90
2018-09-25T06:00:46.320Z,13.50
2018-09-25T06:01:46.223Z,12.50
2018-09-25T06:02:46.140Z,14.20
2018-09-25T06:03:46.023Z,16.10
2018-09-25T06:04:45.924Z,15.50
2018-09-25T06:05:45.825Z,13.50
2018-09-25T06:06:45.730Z,18.30
2018-09-25T06:07:45.644Z,14.80
2018-09-25T06:08:45.528Z,17.10
2018-09-25T06:09:45.482Z,13.40
2018-09-25T06:10:45.334Z,12.40
2018-09-25T06:11:45.238Z,14.70
2018-09-25T06:12:45.151Z,14.50
2018-09-25T06:13:45.036Z,15.30
2018-09-25T06:14:44.935Z,12.30
2018-09-25T06:15:44.885Z,9.40
2018-09-25T06:16:44.739Z,27.10
2018-09-25T06:17:44.659Z,24.70
2018-09-25T06:18:44.565Z,24.30
2018-09-25T06:19:44.441Z,22.90
2018-09-25T06:20:44.342Z,23.80
2018-09-25T06:21:44.243Z,29.20
2018-09-25T06:22:44.161Z,25.60
2018-09-25T06:23:44.045Z,19.30
2018-09-25T06:24:43.948Z,16.30
2018-09-25T06:25:43.848Z,14.80
2018-09-25T06:26:43.747Z,13.00
2018-09-25T06:27:43.665Z,11.80
2018-09-25T06:28:43.617Z,16.10
2018-09-25T06:29:43.459Z,13.60
2018-09-25T06:30:43.358Z,15.30
2018-09-25T06:31:43.259Z,12.70
2018-09-25T06:32:43.173Z,13.60
2018-09-25T06:33:43.058Z,14.80
2018-09-25T06:34:42.983Z,11.70
2018-09-25T06:35:42.863Z,15.20
2018-09-25T06:36:42.762Z,15.30
2018-09-25T06:37:42.682Z,13.20
2018-09-25T06:38:42.575Z,11.60
2018-09-25T06:39:42.470Z,13.10
2018-09-25T06:40:42.435Z,15.10
2018-09-25T06:41:42.273Z,12.20
2018-09-25T06:42:42.188Z,13.80
2018-09-25T06:43:42.074Z,11.90
2018-09-25T06:44:42.080Z,11.40
2018-09-25T06:45:41.874Z,13.70
2018-09-25T06:46:41.779Z,11.30
2018-09-25T06:47:41.696Z,9.50
2018-09-25T06:48:41.580Z,12.90
2018-09-25T06:49:41.485Z,15.50
2018-09-25T06:50:41.385Z,10.20
2018-09-25T06:51:41.392Z,11.40
2018-09-25T06:52:41.205Z,10.40
2018-09-25T06:53:41.090Z,9.70
2018-09-25T06:54:41.008Z,12.00
2018-09-25T06:55:40.892Z,12.20
2018-09-25T06:56:40.795Z,11.10
2018-09-25T06:57:40.710Z,10.20
2018-09-25T06:58:40.718Z,11.20
2018-09-25T06:59:40.498Z,10.60
2018-09-25T07:00:40.473Z,13.20
2018-09-25T07:01:40.303Z,10.90
2018-09-25T07:02:40.222Z,11.00
2018-09-25T07:03:40.104Z,11.30
2018-09-25T07:04:40.006Z,12.00
2018-09-25T07:05:40.017Z,10.80
2018-09-25T07:06:39.813Z,12.10
2018-09-25T07:07:39.745Z,11.40
2018-09-25T07:08:39.614Z,10.00
2018-09-25T07:09:39.602Z,11.20
2018-09-25T07:10:39.427Z,11.90
2018-09-25T07:11:39.322Z,10.00
2018-09-25T07:12:39.242Z,10.10
2018-09-25T07:13:39.129Z,16.60
2018-09-25T07:14:39.032Z,10.10
2018-09-25T07:15:38.931Z,12.20
2018-09-25T07:16:38.832Z,12.30
2018-09-25T07:17:38.827Z,7.80
2018-09-25T07:18:38.637Z,10.50
2018-09-25T07:19:38.539Z,8.50
2018-09-25T07:20:38.441Z,9.30
2018-09-25T07:21:38.341Z,10.70
2018-09-25T07:22:38.274Z,9.40
2018-09-25T07:23:38.152Z,9.70
2018-09-25T07:24:38.084Z,7.70
2018-09-25T07:25:37.957Z,11.10
2018-09-25T07:26:37.859Z,10.20
2018-09-25T07:27:37.766Z,9.90
2018-09-25T07:28:37.684Z,7.90
2018-09-25T07:29:37.572Z,9.30
2018-09-25T07:30:37.479Z,9.00
2018-09-25T07:31:37.380Z,10.10
2018-09-25T07:32:37.285Z,9.40
2018-09-25T07:33:37.202Z,9.30
2018-09-25T07:34:37.094Z,7.00
2018-09-25T07:35:36.995Z,8.80
2018-09-25T07:36:36.902Z,7.10
2018-09-25T07:37:36.806Z,9.70
2018-09-25T07:38:36.722Z,6.80
2018-09-25T07:39:36.664Z,9.60
2018-09-25T07:40:36.518Z,8.10
2018-09-25T07:41:36.423Z,8.10
2018-09-25T07:42:36.328Z,11.30
2018-09-25T07:43:36.250Z,6.50
2018-09-25T07:44:36.137Z,7.80
2018-09-25T07:45:36.041Z,6.60
2018-09-25T07:46:35.950Z,5.60
2018-09-25T07:47:35.853Z,6.30
2018-09-25T07:48:35.876Z,7.90
2018-09-25T07:49:35.662Z,7.90
2018-09-25T07:50:35.571Z,6.30
2018-09-25T07:51:35.475Z,6.80
2018-09-25T07:52:35.384Z,7.60
2018-09-25T07:53:35.307Z,8.20
2018-09-25T07:54:35.291Z,7.70
2018-09-25T07:55:35.218Z,10.30
2018-09-25T07:56:35.012Z,8.30
2018-09-25T07:57:34.910Z,8.30
2018-09-25T07:58:34.831Z,7.10
2018-09-25T07:59:34.722Z,8.20
2018-09-25T08:00:34.628Z,5.90
2018-09-25T08:01:34.535Z,6.50
2018-09-25T08:02:34.440Z,8.90
2018-09-25T08:03:34.431Z,8.00
2018-09-25T08:04:34.257Z,7.40
2018-09-25T08:05:34.160Z,5.30
2018-09-25T08:06:34.067Z,6.60
2018-09-25T08:07:33.976Z,7.90
2018-09-25T08:08:33.900Z,7.30
2018-09-25T08:09:33.894Z,8.50
2018-09-25T08:10:33.700Z,7.60
2018-09-25T08:11:33.602Z,8.10
2018-09-25T08:12:33.512Z,5.90
2018-09-25T08:13:33.435Z,8.90
2018-09-25T08:14:33.326Z,7.10
2018-09-25T08:15:33.302Z,8.30
2018-09-25T08:16:33.138Z,8.30
2018-09-25T08:17:33.052Z,6.70
2018-09-25T08:18:32.973Z,8.70
2018-09-25T08:19:32.861Z,7.80
2018-09-25T08:20:32.772Z,7.70
2018-09-25T08:21:32.679Z,8.20
2018-09-25T08:22:32.590Z,6.50
2018-09-25T08:23:32.509Z,6.90
2018-09-25T08:24:32.402Z,5.80
2018-09-25T08:25:32.311Z,8.10
2018-09-25T08:26:32.232Z,7.30
2018-09-25T08:27:32.127Z,8.60
2018-09-25T08:28:32.051Z,7.70
2018-09-25T08:29:31.975Z,8.40
2018-09-25T08:30:31.853Z,9.00
2018-09-25T08:31:31.768Z,9.10
2018-09-25T08:32:31.669Z,8.90
2018-09-25T08:33:31.593Z,9.30
2018-09-25T08:34:31.481Z,7.20
2018-09-25T08:35:31.390Z,9.40
2018-09-25T08:36:31.298Z,9.40
2018-09-25T08:37:31.206Z,7.40
2018-09-25T08:38:31.194Z,9.20
2018-09-25T08:39:31.116Z,8.60
2018-09-25T08:40:30.924Z,6.90
2018-09-25T08:41:30.832Z,6.40
2018-09-25T08:42:30.742Z,7.30
2018-09-25T08:43:30.663Z,6.70
2018-09-25T08:44:30.554Z,8.80
2018-09-25T08:45:30.458Z,6.40
2018-09-25T08:46:30.365Z,6.60
2018-09-25T08:47:30.270Z,8.20
2018-09-25T08:48:30.195Z,10.00
2018-09-25T08:49:30.083Z,9.70
2018-09-25T08:50:29.995Z,7.60
2018-09-25T08:51:29.894Z,9.50
2018-09-25T08:52:29.800Z,9.10
2018-09-25T08:53:29.749Z,8.10
2018-09-25T08:54:29.613Z,6.10
2018-09-25T08:55:29.517Z,7.40
2018-09-25T08:56:29.423Z,7.80
2018-09-25T08:57:29.329Z,6.10
2018-09-25T08:58:29.253Z,8.20
2018-09-25T08:59:29.143Z,7.30
2018-09-25T09:00:29.047Z,6.10
2018-09-25T09:01:28.952Z,8.20
2018-09-25T09:02:28.863Z,8.00
2018-09-25T09:03:28.779Z,7.50
2018-09-25T09:04:28.671Z,4.60
2018-09-25T09:05:28.612Z,6.70
2018-09-25T09:06:28.485Z,6.30
2018-09-25T09:07:28.388Z,7.90
2018-09-25T09:08:28.379Z,5.00
2018-09-25T09:09:28.201Z,5.00
2018-09-25T09:10:28.110Z,4.30
2018-09-25T09:11:28.016Z,6.40
2018-09-25T09:12:27.929Z,6.10
2018-09-25T09:13:27.850Z,6.50
2018-09-25T09:14:27.745Z,4.10
2018-09-25T09:15:27.650Z,5.10
2018-09-25T09:16:27.559Z,4.70
2018-09-25T09:17:27.468Z,4.10
2018-09-25T09:18:27.378Z,6.10
2018-09-25T09:19:27.304Z,5.60
2018-09-25T09:20:27.199Z,5.40
2018-09-25T09:21:27.112Z,4.70
2018-09-25T09:22:27.018Z,4.60
2018-09-25T09:23:26.932Z,5.40
2018-09-25T09:24:26.855Z,4.60
2018-09-25T09:25:26.748Z,6.50
2018-09-25T09:26:26.660Z,6.90
2018-09-25T09:27:26.572Z,5.80
2018-09-25T09:28:26.502Z,4.40
2018-09-25T09:29:26.411Z,5.10
2018-09-25T09:30:26.309Z,5.70
2018-09-25T09:31:26.217Z,5.30
2018-09-25T09:32:26.294Z,6.10
2018-09-25T09:33:26.044Z,7.40
2018-09-25T09:34:25.966Z,8.20
2018-09-25T09:35:25.859Z,7.00
2018-09-25T09:36:25.772Z,5.10
2018-09-25T09:37:25.683Z,5.50
2018-09-25T09:38:25.594Z,8.20
2018-09-25T09:39:25.627Z,5.30
2018-09-25T09:40:25.415Z,5.80
2018-09-25T09:41:25.422Z,6.90
2018-09-25T09:42:25.234Z,6.60
2018-09-25T09:43:25.143Z,5.70
2018-09-25T09:44:25.071Z,5.60
2018-09-25T09:45:24.967Z,7.10
2018-09-25T09:46:24.977Z,6.20
2018-09-25T09:47:24.784Z,5.90
2018-09-25T09:48:24.698Z,4.90
2018-09-25T09:49:24.621Z,7.00
2018-09-25T09:50:24.537Z,8.10
2018-09-25T09:51:24.425Z,3.40
2018-09-25T09:52:24.333Z,5.50
2018-09-25T09:53:24.347Z,4.50
2018-09-25T09:54:24.174Z,4.40
2018-09-25T09:55:24.067Z,5.00
2018-09-25T09:56:24.056Z,4.30
2018-09-25T09:57:23.891Z,4.00
2018-09-25T09:58:23.802Z,5.90
2018-09-25T09:59:23.734Z,5.00
2018-09-25T10:00:23.742Z,5.30
2018-09-25T10:01:23.541Z,5.50
2018-09-25T10:02:23.453Z,3.10
2018-09-25T10:03:23.364Z,5.40
2018-09-25T10:04:23.293Z,6.40
2018-09-25T10:05:23.188Z,3.60
2018-09-25T10:06:23.100Z,6.80
2018-09-25T10:07:23.119Z,4.80
2018-09-25T10:08:22.928Z,5.30
2018-09-25T10:09:22.861Z,6.10
2018-09-25T10:10:22.753Z,4.50
2018-09-25T10:11:22.667Z,5.40
2018-09-25T10:12:22.581Z,4.80
2018-09-25T10:13:22.494Z,6.90
2018-09-25T10:14:22.527Z,4.30
2018-09-25T10:15:22.320Z,3.60
2018-09-25T10:16:22.233Z,4.60
2018-09-25T10:17:22.145Z,5.50
2018-09-25T10:18:22.056Z,3.60
2018-09-25T10:19:21.990Z,4.70
2018-09-25T10:20:21.890Z,4.30
2018-09-25T10:21:21.914Z,5.50
2018-09-25T10:22:21.717Z,5.60
2018-09-25T10:23:21.624Z,4.30
2018-09-25T10:24:21.557Z,4.90
2018-09-25T10:25:21.451Z,5.50
2018-09-25T10:26:21.364Z,5.70
2018-09-25T10:27:21.340Z,3.70
2018-09-25T10:28:21.288Z,3.50
2018-09-25T10:29:21.117Z,4.20
2018-09-25T10:30:21.015Z,3.10
2018-09-25T10:31:20.926Z,2.90
2018-09-25T10:32:20.842Z,2.90
2018-09-25T10:33:20.755Z,2.70
2018-09-25T10:34:20.722Z,3.00
2018-09-25T10:35:20.688Z,3.90
2018-09-25T10:36:20.497Z,5.60
2018-09-25T10:37:20.405Z,6.50
2018-09-25T10:38:20.319Z,4.90
2018-09-25T10:39:20.246Z,5.10
2018-09-25T10:40:20.140Z,5.00
2018-09-25T10:41:20.052Z,6.10
2018-09-25T10:42:19.963Z,6.00
2018-09-25T10:43:19.873Z,5.40
2018-09-25T10:44:19.808Z,6.50
2018-09-25T10:45:19.695Z,8.00
2018-09-25T10:46:19.606Z,6.20
2018-09-25T10:47:19.515Z,5.40
2018-09-25T10:48:19.429Z,4.60
2018-09-25T10:49:19.355Z,5.50
2018-09-25T10:50:19.293Z,3.30
2018-09-25T10:51:19.158Z,4.60
2018-09-25T10:52:19.067Z,3.80
2018-09-25T10:53:18.980Z,3.40
2018-09-25T10:54:18.906Z,3.00
2018-09-25T10:55:18.832Z,3.90
2018-09-25T10:56:18.883Z,5.60
2018-09-25T10:57:18.623Z,4.30
2018-09-25T10:58:18.534Z,3.60
2018-09-25T10:59:18.465Z,3.90
2018-09-25T11:00:18.355Z,3.60
2018-09-25T11:01:18.269Z,4.20
2018-09-25T11:02:18.180Z,3.00
2018-09-25T11:03:18.252Z,3.20
2018-09-25T11:04:18.027Z,4.30
2018-09-25T11:05:17.919Z,5.20
2018-09-25T11:06:17.833Z,5.30
2018-09-25T11:07:17.745Z,4.40
2018-09-25T11:08:17.659Z,4.70
2018-09-25T11:09:17.572Z,7.10
2018-09-25T11:10:17.501Z,5.80
2018-09-25T11:11:17.439Z,6.90
2018-09-25T11:12:17.309Z,6.80
2018-09-25T11:13:17.221Z,7.00
2018-09-25T11:14:17.133Z,6.80
2018-09-25T11:15:17.060Z,5.40
2018-09-25T11:16:16.955Z,4.30
2018-09-25T11:17:16.868Z,3.80
2018-09-25T11:18:16.782Z,9.40
2018-09-25T11:19:16.691Z,5.30
2018-09-25T11:20:16.612Z,3.40
2018-09-25T11:21:16.508Z,4.70
2018-09-25T11:22:16.419Z,3.00
2018-09-25T11:23:16.329Z,3.40
2018-09-25T11:24:16.248Z,3.60
2018-09-25T11:25:16.170Z,3.60
2018-09-25T11:26:16.066Z,3.30
2018-09-25T11:27:15.974Z,4.20
2018-09-25T11:28:15.889Z,7.00
2018-09-25T11:29:15.800Z,3.80
2018-09-25T11:30:15.729Z,5.20
2018-09-25T11:31:15.627Z,6.10
2018-09-25T11:32:15.535Z,4.40
2018-09-25T11:33:15.455Z,4.00
2018-09-25T11:34:15.367Z,3.00
2018-09-25T11:35:15.351Z,4.50
2018-09-25T11:36:15.195Z,3.20
2018-09-25T11:37:15.101Z,3.60
2018-09-25T11:38:15.013Z,2.70
2018-09-25T11:39:14.927Z,3.50
2018-09-25T11:40:14.857Z,4.00
2018-09-25T11:41:14.814Z,3.30
2018-09-25T11:42:14.665Z,2.90
2018-09-25T11:43:14.580Z,2.40
2018-09-25T11:44:14.494Z,5.90
2018-09-25T11:45:14.427Z,5.00
2018-09-25T11:46:14.320Z,3.40
2018-09-25T11:47:14.295Z,4.90
2018-09-25T11:48:14.147Z,3.70
2018-09-25T11:49:14.060Z,4.20
2018-09-25T11:50:13.990Z,4.40
2018-09-25T11:51:13.886Z,3.00
2018-09-25T11:52:13.800Z,4.30
2018-09-25T11:53:13.713Z,2.90
2018-09-25T11:54:13.626Z,2.50
2018-09-25T11:55:13.554Z,3.10
2018-09-25T11:56:13.498Z,3.80
2018-09-25T11:57:13.365Z,3.80
2018-09-25T11:58:13.379Z,3.10
2018-09-25T11:59:13.194Z,2.90
2018-09-25T12:00:13.123Z,4.30
2018-09-25T12:01:13.024Z,3.40
2018-09-25T12:02:12.999Z,2.20
2018-09-25T12:03:12.847Z,3.40
2018-09-25T12:04:12.762Z,3.40
2018-09-25T12:05:12.800Z,2.80
2018-09-25T12:06:12.592Z,3.80
2018-09-25T12:07:12.506Z,3.20
2018-09-25T12:08:12.418Z,3.20
2018-09-25T12:09:12.333Z,5.00
2018-09-25T12:10:12.267Z,3.70
2018-09-25T12:11:12.167Z,3.00
2018-09-25T12:12:12.081Z,3.60
2018-09-25T12:13:11.990Z,4.00
2018-09-25T12:14:11.905Z,3.70
2018-09-25T12:15:11.837Z,3.90
2018-09-25T12:16:11.740Z,4.20
2018-09-25T12:17:11.652Z,4.00
2018-09-25T12:18:11.566Z,3.70
2018-09-25T12:19:11.583Z,4.40
2018-09-25T12:20:11.413Z,6.40
2018-09-25T12:21:11.311Z,7.10
2018-09-25T12:22:11.222Z,5.90
2018-09-25T12:23:11.142Z,4.90
2018-09-25T12:24:11.049Z,4.90
2018-09-25T12:25:10.976Z,6.40
2018-09-25T12:26:10.976Z,3.00
2018-09-25T12:27:10.785Z,3.10
2018-09-25T12:28:10.696Z,3.70
2018-09-25T12:29:10.612Z,3.20
2018-09-25T12:30:10.538Z,4.40
2018-09-25T12:31:10.434Z,3.80
2018-09-25T12:32:10.349Z,3.40
2018-09-25T12:33:10.366Z,4.20
2018-09-25T12:34:10.174Z,5.60
2018-09-25T12:35:10.110Z,3.20
2018-09-25T12:36:09.998Z,6.90
2018-09-25T12:37:09.914Z,3.50
2018-09-25T12:38:09.826Z,2.60
2018-09-25T12:39:09.738Z,3.40
2018-09-25T12:40:09.776Z,4.30
2018-09-25T12:41:09.566Z,3.40
2018-09-25T12:42:09.477Z,3.60
2018-09-25T12:43:09.392Z,3.40
2018-09-25T12:44:09.306Z,5.50
2018-09-25T12:45:09.220Z,4.60
2018-09-25T12:46:09.148Z,5.00
2018-09-25T12:47:09.044Z,5.70
2018-09-25T12:48:08.955Z,4.40
2018-09-25T12:49:08.869Z,4.80
2018-09-25T12:50:08.803Z,5.90
2018-09-25T12:51:08.699Z,5.40
2018-09-25T12:52:08.608Z,5.30
2018-09-25T12:53:08.517Z,3.50
2018-09-25T12:54:08.434Z,5.50
2018-09-25T12:55:08.344Z,5.40
2018-09-25T12:56:08.274Z,4.80
2018-09-25T12:57:08.164Z,6.70
2018-09-25T12:58:08.075Z,7.00
2018-09-25T12:59:07.985Z,3.90
2018-09-25T13:00:07.899Z,3.70
2018-09-25T13:01:07.824Z,4.00
2018-09-25T13:02:07.718Z,3.90
2018-09-25T13:03:07.630Z,4.70
2018-09-25T13:04:07.536Z,4.80
2018-09-25T13:05:07.450Z,6.70
2018-09-25T13:06:07.373Z,4.90
2018-09-25T13:07:07.266Z,4.60
2018-09-25T13:08:07.177Z,3.60